Time;durP1;ratioP1;P1;durP2;ratioP2;P2;SDS_P1;SDS_P2;PMS_P1;PMS_P2;Temp;Humidity;BMP_temperature;BMP_pressure;BME280_temperature;BME280_humidity;BME280_pressure;Samples;Min_cycle;Max_cycle;Signal;HPM_P1;HPM_P2
2021/12/08 00:00:18;;;;;;;1.92;1.23;;;;;;;;;;5031683;28;20021;-53
2021/12/08 00:02:44;;;;;;;2.70;1.20;;;;;;;;;;5032108;28;20041;-62
2021/12/08 00:05:11;;;;;;;2.63;1.10;;;;;;;;;;5031361;28;20100;-54
2021/12/08 00:07:38;;;;;;;2.95;1.50;;;;;;;;;;5031563;28;20104;-57
2021/12/08 00:10:16;;;;;;;4.55;1.35;;;;;;;;;;5031227;28;20938;-54
2021/12/08 00:15:27;;;;;;;2.88;1.10;;;;;;;;;;5031852;28;20083;-54
2021/12/08 00:17:53;;;;;;;2.42;1.20;;;;;;;;;;5031266;28;20550;-54
2021/12/08 00:20:19;;;;;;;2.40;1.38;;;;;;;;;;5032145;28;20100;-54
2021/12/08 00:22:45;;;;;;;2.28;0.90;;;;;;;;;;5031907;28;20091;-62
2021/12/08 00:25:11;;;;;;;1.70;0.90;;;;;;;;;;5031381;28;20025;-54
2021/12/08 00:27:37;;;;;;;2.30;1.20;;;;;;;;;;5032058;28;20053;-52
2021/12/08 00:30:04;;;;;;;2.20;1.15;;;;;;;;;;5030968;28;20029;-53
2021/12/08 00:32:32;;;;;;;2.80;1.55;;;;;;;;;;5031876;28;20033;-54
2021/12/08 00:34:58;;;;;;;3.72;1.27;;;;;;;;;;5030836;28;20466;-55
2021/12/08 00:37:26;;;;;;;1.20;1.10;;;;;;;;;;5032072;28;20070;-54
2021/12/08 00:39:52;;;;;;;1.52;1.25;;;;;;;;;;5031022;28;20017;-52
2021/12/08 00:42:19;;;;;;;1.80;1.10;;;;;;;;;;5031797;28;20478;-54
2021/12/08 00:44:45;;;;;;;2.25;1.30;;;;;;;;;;5031548;28;20021;-60
2021/12/08 00:47:11;;;;;;;2.42;1.48;;;;;;;;;;5031268;28;20060;-56
2021/12/08 00:49:39;;;;;;;2.25;1.40;;;;;;;;;;5031860;28;20489;-55
2021/12/08 00:52:05;;;;;;;2.58;1.00;;;;;;;;;;5031046;28;20018;-56
2021/12/08 00:54:31;;;;;;;1.45;1.00;;;;;;;;;;5031423;28;20044;-55
2021/12/08 00:56:57;;;;;;;1.58;1.15;;;;;;;;;;5030693;28;20551;-55
2021/12/08 00:59:24;;;;;;;1.55;1.15;;;;;;;;;;5044867;28;20048;-56
2021/12/08 01:01:50;;;;;;;1.05;0.70;;;;;;;;;;5050891;28;20025;-62
2021/12/08 01:04:16;;;;;;;1.17;0.75;;;;;;;;;;5051617;28;20040;-54
2021/12/08 01:06:42;;;;;;;1.67;0.80;;;;;;;;;;5051321;28;20030;-55
2021/12/08 01:09:09;;;;;;;1.58;0.82;;;;;;;;;;5050632;28;20604;-55
2021/12/08 01:11:35;;;;;;;1.58;0.85;;;;;;;;;;5053347;28;20021;-54
2021/12/08 01:14:01;;;;;;;2.20;1.08;;;;;;;;;;5054743;28;20347;-55
2021/12/08 01:16:27;;;;;;;1.20;0.98;;;;;;;;;;5055115;28;20064;-53
2021/12/08 01:18:53;;;;;;;2.67;1.23;;;;;;;;;;5054449;28;20055;-54
2021/12/08 01:21:20;;;;;;;2.10;1.50;;;;;;;;;;5055405;28;20027;-53
2021/12/08 01:23:46;;;;;;;1.75;1.00;;;;;;;;;;5055097;28;20044;-60
2021/12/08 01:26:12;;;;;;;1.70;1.27;;;;;;;;;;5054794;28;20025;-54
2021/12/08 01:28:39;;;;;;;1.10;0.80;;;;;;;;;;5055305;28;20055;-53
2021/12/08 01:31:05;;;;;;;1.10;0.90;;;;;;;;;;5054305;28;20374;-52
2021/12/08 01:33:34;;;;;;;1.23;0.77;;;;;;;;;;5054909;28;20377;-53
2021/12/08 01:36:02;;;;;;;2.17;1.30;;;;;;;;;;5054060;28;20032;-52
2021/12/08 01:38:28;;;;;;;1.98;1.20;;;;;;;;;;5054817;28;20055;-54
2021/12/08 01:40:54;;;;;;;1.45;1.35;;;;;;;;;;5053961;28;20033;-53
2021/12/08 01:43:41;;;;;;;1.35;1.10;;;;;;;;;;5054756;28;20033;-52
2021/12/08 01:46:08;;;;;;;1.02;0.80;;;;;;;;;;5053486;28;20156;-52
2021/12/08 01:48:36;;;;;;;1.67;0.80;;;;;;;;;;5054597;28;20488;-53
2021/12/08 01:51:05;;;;;;;1.35;0.80;;;;;;;;;;5054026;28;20043;-53
2021/12/08 01:53:31;;;;;;;2.08;1.00;;;;;;;;;;5054972;28;20405;-51
2021/12/08 01:55:57;;;;;;;0.82;0.70;;;;;;;;;;5053571;28;20029;-52
2021/12/08 01:58:23;;;;;;;0.95;0.70;;;;;;;;;;5054549;28;20120;-50
2021/12/08 02:00:52;;;;;;;1.55;0.70;;;;;;;;;;5054176;28;20095;-61
2021/12/08 02:03:19;;;;;;;1.65;0.90;;;;;;;;;;5054620;28;20373;-52
2021/12/08 02:05:45;;;;;;;1.20;0.80;;;;;;;;;;5054438;28;20025;-54
2021/12/08 02:08:11;;;;;;;1.05;0.75;;;;;;;;;;5053602;28;20020;-53
2021/12/08 02:10:38;;;;;;;1.63;0.80;;;;;;;;;;5054304;28;20052;-54
2021/12/08 02:13:05;;;;;;;1.20;0.82;;;;;;;;;;5053010;28;20056;-50
2021/12/08 02:15:32;;;;;;;0.77;0.70;;;;;;;;;;5054133;28;20025;-53
2021/12/08 02:17:58;;;;;;;1.50;0.90;;;;;;;;;;5053451;28;20041;-55
2021/12/08 02:20:26;;;;;;;1.67;0.80;;;;;;;;;;5054513;28;20084;-55
2021/12/08 02:22:52;;;;;;;0.98;0.88;;;;;;;;;;5052811;28;20037;-61
2021/12/08 02:25:20;;;;;;;1.55;0.80;;;;;;;;;;5054307;28;20435;-53
2021/12/08 02:27:46;;;;;;;2.83;1.23;;;;;;;;;;5053876;28;20056;-54
2021/12/08 02:30:20;;;;;;;1.45;0.95;;;;;;;;;;5053492;28;20021;-54
2021/12/08 02:48:58;;;;;;;1.63;0.93;;;;;;;;;;5053081;28;20040;-54
2021/12/08 02:51:24;;;;;;;1.40;0.70;;;;;;;;;;5053929;28;20116;-55
2021/12/08 02:53:50;;;;;;;1.33;0.98;;;;;;;;;;5053213;28;20025;-62
2021/12/08 02:56:17;;;;;;;1.00;0.80;;;;;;;;;;5053225;28;20095;-54
2021/12/08 02:58:43;;;;;;;0.88;0.60;;;;;;;;;;5045479;28;20021;-52
2021/12/08 03:01:11;;;;;;;1.38;0.90;;;;;;;;;;5032659;28;20553;-54
2021/12/08 03:03:37;;;;;;;1.60;1.25;;;;;;;;;;5033413;28;20128;-54
2021/12/08 03:06:03;;;;;;;1.52;0.70;;;;;;;;;;5031519;28;20030;-54
2021/12/08 03:08:29;;;;;;;0.98;0.70;;;;;;;;;;5033295;28;20049;-54
2021/12/08 03:10:56;;;;;;;1.10;0.68;;;;;;;;;;5032623;28;20029;-53
2021/12/08 03:13:32;;;;;;;0.77;0.60;;;;;;;;;;5033345;28;20370;-54
2021/12/08 03:15:58;;;;;;;1.25;0.60;;;;;;;;;;5032696;28;20134;-55
2021/12/08 03:18:32;;;;;;;1.27;0.98;;;;;;;;;;5033430;28;20061;-54
2021/12/08 03:20:58;;;;;;;0.80;0.50;;;;;;;;;;5032558;28;20075;-54
2021/12/08 03:23:32;;;;;;;0.73;0.52;;;;;;;;;;5032936;28;20025;-54
2021/12/08 03:26:00;;;;;;;1.25;0.70;;;;;;;;;;5032326;28;20029;-53
2021/12/08 03:28:31;;;;;;;1.23;0.55;;;;;;;;;;5032971;28;20026;-51
2021/12/08 03:31:04;;;;;;;1.33;0.70;;;;;;;;;;5032254;28;20136;-52
2021/12/08 03:33:30;;;;;;;1.63;1.38;;;;;;;;;;5032377;28;20033;-53
2021/12/08 03:35:57;;;;;;;1.95;1.00;;;;;;;;;;5032126;28;20021;-50
2021/12/08 03:38:23;;;;;;;1.05;0.70;;;;;;;;;;5033076;28;20033;-54
2021/12/08 03:40:49;;;;;;;1.05;0.80;;;;;;;;;;5032945;28;20462;-53
2021/12/08 03:43:16;;;;;;;1.40;0.60;;;;;;;;;;5031636;28;20123;-52
2021/12/08 03:45:47;;;;;;;1.23;0.65;;;;;;;;;;5032206;28;20053;-53
2021/12/08 03:48:21;;;;;;;1.63;0.90;;;;;;;;;;5032275;28;20247;-55
2021/12/08 03:50:47;;;;;;;1.90;0.88;;;;;;;;;;5032778;28;20367;-51
2021/12/08 03:53:16;;;;;;;0.70;0.50;;;;;;;;;;5031790;28;20029;-54
2021/12/08 03:55:43;;;;;;;1.20;0.70;;;;;;;;;;5032683;28;20018;-54
2021/12/08 03:58:10;;;;;;;1.08;0.80;;;;;;;;;;5034370;28;20071;-51
2021/12/08 04:00:37;;;;;;;1.60;0.70;;;;;;;;;;5052292;28;20021;-54
2021/12/08 04:03:04;;;;;;;1.13;0.60;;;;;;;;;;5051713;28;20055;-54
2021/12/08 04:08:18;;;;;;;0.85;0.60;;;;;;;;;;5051599;28;20036;-52
2021/12/08 04:10:46;;;;;;;1.77;1.15;;;;;;;;;;5052329;28;20044;-53
2021/12/08 04:13:13;;;;;;;0.77;0.60;;;;;;;;;;5051398;28;20025;-54
2021/12/08 04:15:39;;;;;;;2.00;0.70;;;;;;;;;;5052353;28;20067;-54
2021/12/08 04:18:06;;;;;;;1.00;0.80;;;;;;;;;;5051319;28;20100;-52
2021/12/08 04:20:42;;;;;;;1.70;0.52;;;;;;;;;;5052237;28;20029;-54
2021/12/08 04:23:10;;;;;;;0.93;0.60;;;;;;;;;;5051257;28;20044;-54
2021/12/08 04:25:38;;;;;;;0.60;0.52;;;;;;;;;;5052052;28;20021;-50
2021/12/08 04:28:08;;;;;;;0.93;0.60;;;;;;;;;;5051233;28;20032;-54
2021/12/08 04:30:38;;;;;;;1.45;1.15;;;;;;;;;;5051943;28;20082;-53
2021/12/08 04:33:04;;;;;;;1.10;0.57;;;;;;;;;;5051199;28;20025;-55
2021/12/08 04:35:30;;;;;;;0.60;0.55;;;;;;;;;;5051626;28;20021;-53
2021/12/08 04:38:00;;;;;;;0.90;0.65;;;;;;;;;;5051281;28;20079;-61
2021/12/08 04:40:46;;;;;;;0.80;0.75;;;;;;;;;;5051641;28;20075;-50
2021/12/08 04:43:23;;;;;;;1.50;0.50;;;;;;;;;;5050922;28;20115;-54
2021/12/08 04:46:09;;;;;;;1.83;0.80;;;;;;;;;;5055793;28;20048;-49
2021/12/08 04:51:27;;;;;;;1.05;0.57;;;;;;;;;;5057530;28;20104;-52
2021/12/08 05:02:25;;;;;;;0.80;0.70;;;;;;;;;;5037862;28;20052;-63
2021/12/08 05:07:33;;;;;;;0.70;0.60;;;;;;;;;;5037585;28;20025;-54
2021/12/08 05:10:00;;;;;;;0.60;0.40;;;;;;;;;;5037796;28;20026;-58
2021/12/08 05:12:31;;;;;;;0.40;0.30;;;;;;;;;;5038222;28;20087;-51
2021/12/08 05:15:00;;;;;;;0.90;0.50;;;;;;;;;;5037525;28;20486;-61
2021/12/08 05:17:29;;;;;;;1.15;0.60;;;;;;;;;;5037900;28;20036;-54
2021/12/08 05:19:57;;;;;;;1.60;0.80;;;;;;;;;;5037665;28;20470;-61
2021/12/08 05:22:35;;;;;;;2.00;1.08;;;;;;;;;;5037953;28;20076;-51
2021/12/08 07:57:30;;;;;;;3.63;0.95;;;;;;;;;;5003984;28;20455;-58
2021/12/08 07:59:59;;;;;;;3.80;1.10;;;;;;;;;;4996121;28;20463;-58
2021/12/08 08:02:26;;;;;;;4.55;1.20;;;;;;;;;;5011560;28;20105;-60
2021/12/08 08:04:53;;;;;;;6.30;1.40;;;;;;;;;;5005972;28;20073;-58
2021/12/08 08:07:19;;;;;;;2.80;0.73;;;;;;;;;;5004676;28;20387;-58
2021/12/08 08:09:47;;;;;;;1.40;0.90;;;;;;;;;;5011260;28;20105;-56
2021/12/08 08:12:21;;;;;;;2.08;1.00;;;;;;;;;;5010952;28;20018;-57
2021/12/08 08:14:52;;;;;;;4.97;1.15;;;;;;;;;;5012337;28;20033;-57
2021/12/08 08:17:22;;;;;;;2.13;0.95;;;;;;;;;;5010862;28;20072;-57
2021/12/08 08:19:48;;;;;;;1.00;0.60;;;;;;;;;;5010950;28;20060;-56
2021/12/08 08:22:19;;;;;;;2.75;0.70;;;;;;;;;;5010406;28;20134;-58
2021/12/08 08:24:45;;;;;;;1.73;0.60;;;;;;;;;;5011047;28;20038;-58
2021/12/08 08:27:12;;;;;;;1.38;0.90;;;;;;;;;;5011702;28;20057;-59
2021/12/08 08:29:39;;;;;;;1.95;0.90;;;;;;;;;;5011376;28;20550;-60
2021/12/08 08:32:19;;;;;;;2.17;0.73;;;;;;;;;;5011477;28;20076;-58
2021/12/08 08:34:45;;;;;;;0.70;0.57;;;;;;;;;;5011973;28;20034;-58
2021/12/08 08:37:12;;;;;;;2.80;0.98;;;;;;;;;;5010164;28;20021;-58
2021/12/08 08:39:41;;;;;;;1.55;0.68;;;;;;;;;;5012537;28;20068;-57
2021/12/08 08:42:07;;;;;;;1.10;0.60;;;;;;;;;;5010431;28;20370;-63
2021/12/08 08:44:36;;;;;;;1.48;0.75;;;;;;;;;;5012066;28;20088;-57
2021/12/08 08:47:08;;;;;;;1.42;0.95;;;;;;;;;;5011904;28;20034;-57
2021/12/08 08:49:34;;;;;;;2.08;0.90;;;;;;;;;;5012052;28;20403;-57
2021/12/08 08:52:05;;;;;;;1.33;0.55;;;;;;;;;;5011819;28;20026;-56
2021/12/08 08:54:33;;;;;;;1.08;0.60;;;;;;;;;;5011332;28;20030;-57
2021/12/08 08:57:06;;;;;;;2.05;0.70;;;;;;;;;;5011457;28;20057;-57
2021/12/08 08:59:35;;;;;;;1.55;0.90;;;;;;;;;;5011697;28;20057;-57
2021/12/08 09:02:07;;;;;;;1.17;1.02;;;;;;;;;;5011757;28;20036;-57
2021/12/08 09:04:34;;;;;;;0.60;0.50;;;;;;;;;;5011910;28;20077;-56
2021/12/08 09:07:08;;;;;;;0.50;0.40;;;;;;;;;;5011563;28;20022;-57
2021/12/08 09:09:36;;;;;;;1.23;0.63;;;;;;;;;;5011776;28;20378;-61
2021/12/08 09:12:13;;;;;;;0.73;0.57;;;;;;;;;;5011759;28;20100;-57
2021/12/08 09:14:48;;;;;;;3.03;1.38;;;;;;;;;;5011883;28;20030;-57
2021/12/08 09:17:23;;;;;;;1.75;0.88;;;;;;;;;;5011000;28;20034;-58
2021/12/08 09:19:52;;;;;;;1.15;0.80;;;;;;;;;;5011710;28;20042;-58
2021/12/08 09:22:40;;;;;;;0.95;0.73;;;;;;;;;;5010836;28;20025;-58
2021/12/08 09:25:12;;;;;;;0.73;0.50;;;;;;;;;;5010277;28;20034;-64
2021/12/08 09:27:41;;;;;;;1.17;0.70;;;;;;;;;;5011211;28;20034;-58
2021/12/08 09:30:07;;;;;;;1.83;1.13;;;;;;;;;;5011340;28;20034;-64
2021/12/08 09:32:38;;;;;;;1.25;0.60;;;;;;;;;;5012929;28;20053;-58
2021/12/08 09:35:10;;;;;;;1.35;0.70;;;;;;;;;;5014144;28;20080;-57
2021/12/08 09:37:36;;;;;;;;;;;;;;;;;;5015252;28;20099;-58
2021/12/08 09:40:09;;;;;;;1.42;0.75;;;;;;;;;;5015351;28;19906;-58
2021/12/08 09:42:39;;;;;;;2.28;0.90;;;;;;;;;;5014000;28;20018;-58
2021/12/08 09:45:15;;;;;;;0.80;0.60;;;;;;;;;;5015139;28;20021;-62
2021/12/08 09:47:41;;;;;;;2.05;0.60;;;;;;;;;;5014790;28;20112;-57
2021/12/08 09:50:09;;;;;;;1.95;0.60;;;;;;;;;;5014896;28;20026;-64
2021/12/08 09:52:35;;;;;;;1.58;0.60;;;;;;;;;;5014775;28;20026;-59
2021/12/08 09:55:02;;;;;;;1.17;0.75;;;;;;;;;;5015090;28;20053;-58
2021/12/08 09:57:28;;;;;;;2.20;0.80;;;;;;;;;;5014159;28;20046;-57
2021/12/08 09:59:55;;;;;;;1.65;0.50;;;;;;;;;;5014936;28;20040;-58
2021/12/08 10:02:32;;;;;;;0.65;0.50;;;;;;;;;;5013904;28;20383;-57
2021/12/08 10:04:59;;;;;;;0.77;0.60;;;;;;;;;;5014748;28;20045;-57
2021/12/08 10:07:27;;;;;;;1.20;0.68;;;;;;;;;;5013709;28;20037;-56
2021/12/08 10:09:53;;;;;;;1.33;0.88;;;;;;;;;;5014573;28;20026;-57
2021/12/08 10:12:19;;;;;;;1.10;0.70;;;;;;;;;;5013967;28;20021;-58
2021/12/08 10:14:46;;;;;;;1.10;0.77;;;;;;;;;;5011933;28;20052;-58
2021/12/08 10:17:13;;;;;;;0.80;0.57;;;;;;;;;;5011029;28;20032;-58
2021/12/08 10:19:39;;;;;;;1.15;0.60;;;;;;;;;;5014322;28;20042;-57
2021/12/08 10:22:16;;;;;;;1.20;0.70;;;;;;;;;;5014339;28;20054;-58
2021/12/08 10:24:42;;;;;;;1.55;0.98;;;;;;;;;;5014275;28;20033;-57
2021/12/08 10:27:10;;;;;;;1.38;0.80;;;;;;;;;;5013590;28;20050;-64
2021/12/08 10:29:36;;;;;;;1.67;0.60;;;;;;;;;;5007190;28;20033;-58
2021/12/08 10:32:03;;;;;;;1.42;1.00;;;;;;;;;;5014380;28;20033;-57
2021/12/08 10:34:36;;;;;;;1.33;0.90;;;;;;;;;;5013719;28;20021;-59
2021/12/08 10:37:07;;;;;;;2.05;0.85;;;;;;;;;;5014697;28;20018;-59
2021/12/08 10:39:33;;;;;;;2.30;1.00;;;;;;;;;;5014288;28;20022;-59
2021/12/08 10:42:01;;;;;;;1.92;0.88;;;;;;;;;;5014570;28;20367;-59
2021/12/08 10:44:31;;;;;;;2.03;1.00;;;;;;;;;;5013396;28;20041;-59
2021/12/08 10:46:59;;;;;;;2.15;1.30;;;;;;;;;;5013878;28;20049;-59
2021/12/08 10:54:44;;;;;;;1.75;0.98;;;;;;;;;;5014189;28;20079;-58
2021/12/08 10:57:19;;;;;;;3.75;1.02;;;;;;;;;;5013473;28;20132;-59
2021/12/08 10:59:57;;;;;;;2.33;0.88;;;;;;;;;;5012125;28;20095;-57
2021/12/08 11:02:42;;;;;;;2.85;1.45;;;;;;;;;;5013352;28;20466;-58
2021/12/08 11:05:31;;;;;;;1.20;0.90;;;;;;;;;;5002411;28;20057;-59
2021/12/08 11:08:06;;;;;;;2.13;0.90;;;;;;;;;;4991180;28;20030;-58
2021/12/08 11:10:34;;;;;;;1.58;1.00;;;;;;;;;;4994254;28;20022;-58
2021/12/08 11:13:00;;;;;;;1.48;0.80;;;;;;;;;;4994297;28;20030;-59
2021/12/08 11:15:27;;;;;;;1.10;0.70;;;;;;;;;;4992310;28;20597;-59
2021/12/08 11:18:12;;;;;;;1.40;0.90;;;;;;;;;;5010728;28;20029;-58
2021/12/08 11:20:45;;;;;;;1.35;0.95;;;;;;;;;;5013560;28;20085;-57
2021/12/08 11:23:15;;;;;;;1.13;0.80;;;;;;;;;;5013139;28;20029;-56
2021/12/08 11:25:44;;;;;;;2.08;0.90;;;;;;;;;;5013378;28;20034;-58
2021/12/08 11:28:37;;;;;;;1.90;1.08;;;;;;;;;;5013018;28;20033;-58
2021/12/08 11:31:06;;;;;;;1.73;0.77;;;;;;;;;;5012080;28;20037;-57
2021/12/08 11:33:32;;;;;;;1.30;0.98;;;;;;;;;;5013607;28;20034;-57
2021/12/08 11:36:08;;;;;;;2.55;0.98;;;;;;;;;;5013526;28;20044;-57
2021/12/08 11:38:34;;;;;;;1.70;1.00;;;;;;;;;;5013563;28;20474;-57
2021/12/08 11:41:01;;;;;;;1.40;0.75;;;;;;;;;;5012986;28;20486;-57
2021/12/08 11:43:30;;;;;;;1.65;0.77;;;;;;;;;;5012733;28;20439;-57
2021/12/08 11:46:16;;;;;;;1.35;0.70;;;;;;;;;;5012817;28;20018;-58
2021/12/08 11:48:57;;;;;;;1.83;0.98;;;;;;;;;;5013028;28;20022;-57
2021/12/08 11:51:23;;;;;;;1.13;0.80;;;;;;;;;;5012657;28;20076;-57
2021/12/08 11:53:49;;;;;;;1.60;1.08;;;;;;;;;;5013063;28;20033;-57
2021/12/08 11:56:34;;;;;;;1.95;0.90;;;;;;;;;;5011698;28;20525;-58
2021/12/08 11:59:01;;;;;;;1.58;0.80;;;;;;;;;;5012616;28;20034;-59
2021/12/08 12:01:27;;;;;;;1.20;0.88;;;;;;;;;;5011350;28;20341;-59
2021/12/08 12:03:53;;;;;;;0.73;0.70;;;;;;;;;;5012931;28;20477;-58
2021/12/08 12:06:27;;;;;;;1.38;0.80;;;;;;;;;;5012403;28;20413;-57
2021/12/08 12:08:53;;;;;;;1.17;0.77;;;;;;;;;;5012749;28;20462;-58
2021/12/08 12:11:19;;;;;;;0.90;0.70;;;;;;;;;;5011764;28;20033;-58
2021/12/08 12:13:46;;;;;;;1.25;0.68;;;;;;;;;;5012491;28;20467;-56
2021/12/08 12:16:13;;;;;;;5.40;0.80;;;;;;;;;;5011792;28;20482;-58
2021/12/08 12:18:39;;;;;;;1.08;0.80;;;;;;;;;;5012429;28;20402;-58
2021/12/08 12:21:21;;;;;;;1.33;0.88;;;;;;;;;;5012313;28;20025;-59
2021/12/08 12:24:06;;;;;;;1.20;0.80;;;;;;;;;;5012520;28;20164;-58
2021/12/08 12:26:40;;;;;;;2.67;0.80;;;;;;;;;;5011999;28;20157;-58
2021/12/08 12:29:19;;;;;;;2.22;0.68;;;;;;;;;;5011122;28;20026;-59
2021/12/08 12:31:45;;;;;;;1.15;0.80;;;;;;;;;;5014791;28;20085;-58
2021/12/08 12:34:24;;;;;;;1.55;0.70;;;;;;;;;;5011891;28;20070;-55
2021/12/08 12:36:50;;;;;;;1.70;1.05;;;;;;;;;;5012478;28;20076;-56
2021/12/08 12:39:21;;;;;;;1.33;0.80;;;;;;;;;;5011921;28;20414;-59
2021/12/08 12:42:11;;;;;;;1.30;0.80;;;;;;;;;;5012335;28;20084;-59
2021/12/08 12:44:38;;;;;;;1.27;0.95;;;;;;;;;;5012546;28;20491;-59
2021/12/08 12:47:18;;;;;;;0.57;0.50;;;;;;;;;;5009922;28;20037;-57
2021/12/08 12:49:47;;;;;;;1.85;0.90;;;;;;;;;;5011989;28;20022;-58
2021/12/08 12:52:15;;;;;;;1.50;1.20;;;;;;;;;;5010775;28;20049;-58
2021/12/08 12:54:42;;;;;;;0.80;0.70;;;;;;;;;;5011794;28;20025;-58
2021/12/08 12:57:09;;;;;;;1.63;0.88;;;;;;;;;;5011341;28;20066;-63
2021/12/08 12:59:44;;;;;;;1.17;1.08;;;;;;;;;;5011021;28;20030;-58
2021/12/08 13:02:20;;;;;;;2.55;1.00;;;;;;;;;;5011505;28;20080;-63
2021/12/08 13:05:15;;;;;;;1.02;0.73;;;;;;;;;;5011688;28;20033;-58
2021/12/08 13:07:56;;;;;;;1.98;0.73;;;;;;;;;;5014835;28;20034;-58
2021/12/08 13:10:29;;;;;;;0.90;0.70;;;;;;;;;;5014557;28;20099;-58
2021/12/08 13:13:08;;;;;;;0.80;0.80;;;;;;;;;;5015499;28;20034;-59
2021/12/08 13:15:34;;;;;;;1.25;0.77;;;;;;;;;;5013683;28;20479;-58
2021/12/08 13:18:31;;;;;;;1.20;0.60;;;;;;;;;;5014998;28;20084;-58
2021/12/08 13:21:03;;;;;;;0.85;0.60;;;;;;;;;;5015051;28;20452;-59
2021/12/08 13:23:30;;;;;;;1.25;0.70;;;;;;;;;;5014756;28;20034;-58
2021/12/08 13:26:07;;;;;;;1.38;0.73;;;;;;;;;;5015520;28;20034;-58
2021/12/08 13:28:55;;;;;;;1.50;0.90;;;;;;;;;;5014640;28;20735;-58
2021/12/08 13:31:36;;;;;;;1.67;0.70;;;;;;;;;;5013231;28;20029;-56
2021/12/08 13:34:07;;;;;;;1.08;0.63;;;;;;;;;;5015204;28;20025;-58
2021/12/08 13:36:43;;;;;;;1.20;0.90;;;;;;;;;;5013869;28;20234;-58
2021/12/08 13:39:11;;;;;;;1.17;0.65;;;;;;;;;;5015249;28;20061;-59
2021/12/08 13:41:38;;;;;;;1.33;0.68;;;;;;;;;;5015475;28;20018;-58
2021/12/08 13:44:21;;;;;;;0.93;0.68;;;;;;;;;;5015394;28;20164;-58
2021/12/08 13:46:48;;;;;;;1.50;0.75;;;;;;;;;;5014521;28;20105;-58
2021/12/08 13:49:36;;;;;;;1.00;0.63;;;;;;;;;;5014264;28;20018;-59
2021/12/08 13:52:05;;;;;;;0.75;0.70;;;;;;;;;;5014448;28;20079;-58
2021/12/08 13:54:32;;;;;;;1.52;1.00;;;;;;;;;;5014422;28;20275;-58
2021/12/08 13:56:59;;;;;;;2.50;0.77;;;;;;;;;;5014562;28;20076;-58
2021/12/08 13:59:44;;;;;;;1.42;0.90;;;;;;;;;;5013037;28;20076;-59
2021/12/08 14:02:39;;;;;;;1.40;0.80;;;;;;;;;;5005488;28;20092;-58
2021/12/08 14:05:05;;;;;;;1.05;0.60;;;;;;;;;;4995060;28;20050;-58
2021/12/08 14:07:31;;;;;;;0.70;0.70;;;;;;;;;;4994523;28;20050;-59
2021/12/08 14:09:58;;;;;;;1.70;1.13;;;;;;;;;;4995205;28;20026;-58
2021/12/08 14:12:24;;;;;;;0.80;0.77;;;;;;;;;;4994453;28;20057;-58
2021/12/08 14:14:54;;;;;;;1.38;0.80;;;;;;;;;;4994824;28;20388;-58
2021/12/08 14:17:28;;;;;;;1.08;0.73;;;;;;;;;;5005736;28;20061;-58
2021/12/08 14:19:54;;;;;;;1.40;0.80;;;;;;;;;;5014880;28;20029;-58
2021/12/08 14:22:20;;;;;;;1.17;0.90;;;;;;;;;;5014159;28;20021;-59
2021/12/08 14:24:55;;;;;;;1.00;0.85;;;;;;;;;;5014733;28;20364;-58
2021/12/08 14:27:21;;;;;;;1.85;1.10;;;;;;;;;;5014359;28;20026;-59
2021/12/08 14:29:50;;;;;;;1.23;0.70;;;;;;;;;;5014032;28;20018;-58
2021/12/08 14:32:18;;;;;;;0.90;0.70;;;;;;;;;;5013934;28;20036;-59
2021/12/08 14:34:44;;;;;;;2.50;0.90;;;;;;;;;;5014213;28;20478;-58
2021/12/08 14:37:11;;;;;;;1.25;0.88;;;;;;;;;;5014541;28;20048;-58
2021/12/08 14:39:40;;;;;;;2.15;0.85;;;;;;;;;;5013923;28;20025;-58
2021/12/08 14:42:14;;;;;;;1.15;0.70;;;;;;;;;;5014328;28;20029;-59
2021/12/08 14:44:45;;;;;;;1.83;0.85;;;;;;;;;;5014003;28;20037;-58
2021/12/08 14:47:13;;;;;;;1.83;0.90;;;;;;;;;;5013730;28;20022;-61
2021/12/08 14:49:41;;;;;;;1.08;0.90;;;;;;;;;;5014299;28;20431;-59
2021/12/08 14:52:09;;;;;;;0.98;0.75;;;;;;;;;;5014182;28;20026;-60
2021/12/08 14:54:36;;;;;;;3.67;0.82;;;;;;;;;;5013153;28;20018;-61
2021/12/08 14:57:05;;;;;;;5.45;0.90;;;;;;;;;;5013539;28;20454;-59
2021/12/08 14:59:32;;;;;;;1.98;0.95;;;;;;;;;;5012753;28;20069;-60
2021/12/08 15:01:58;;;;;;;3.13;0.90;;;;;;;;;;5013718;28;20026;-59
2021/12/08 15:04:24;;;;;;;3.95;1.20;;;;;;;;;;5013310;28;20030;-60
2021/12/08 15:06:58;;;;;;;6.97;1.27;;;;;;;;;;5012494;28;20471;-60
2021/12/08 15:09:25;;;;;;;5.65;1.13;;;;;;;;;;5013769;28;20033;-60
2021/12/08 15:11:52;;;;;;;2.50;1.13;;;;;;;;;;5013971;28;20021;-61
2021/12/08 15:14:18;;;;;;;2.20;0.77;;;;;;;;;;5013272;28;20033;-60
2021/12/08 15:16:48;;;;;;;4.07;1.08;;;;;;;;;;5012936;28;20018;-60
2021/12/08 15:19:14;;;;;;;2.55;0.88;;;;;;;;;;5013109;28;20080;-71
2021/12/08 15:21:42;;;;;;;1.92;1.13;;;;;;;;;;5013754;28;20022;-60
2021/12/08 15:24:10;;;;;;;2.53;1.10;;;;;;;;;;5013568;28;20029;-60
2021/12/08 15:26:37;;;;;;;1.38;0.95;;;;;;;;;;5012908;28;20036;-60
2021/12/08 15:29:05;;;;;;;2.00;0.88;;;;;;;;;;5012327;28;20110;-60
2021/12/08 15:31:40;;;;;;;2.38;1.20;;;;;;;;;;5012794;28;20022;-59
2021/12/08 15:34:21;;;;;;;1.70;1.00;;;;;;;;;;5013476;28;20044;-59
2021/12/08 15:36:59;;;;;;;4.03;0.93;;;;;;;;;;5013040;28;20475;-59
2021/12/08 15:39:26;;;;;;;1.73;1.00;;;;;;;;;;5012649;28;20032;-59
2021/12/08 15:41:52;;;;;;;0.93;0.85;;;;;;;;;;5013296;28;20026;-59
2021/12/08 15:44:19;;;;;;;1.13;0.85;;;;;;;;;;5012517;28;20057;-60
2021/12/08 15:46:46;;;;;;;2.90;0.90;;;;;;;;;;5012397;28;20022;-59
2021/12/08 15:49:17;;;;;;;1.58;0.80;;;;;;;;;;5013264;28;20029;-59
2021/12/08 15:51:43;;;;;;;1.00;0.70;;;;;;;;;;5013490;28;20022;-60
2021/12/08 15:54:09;;;;;;;2.00;1.23;;;;;;;;;;5013175;28;20110;-59
2021/12/08 15:56:39;;;;;;;1.20;0.90;;;;;;;;;;5012485;28;20235;-62
2021/12/08 15:59:23;;;;;;;0.80;0.60;;;;;;;;;;5012555;28;20104;-59
2021/12/08 16:01:51;;;;;;;1.23;1.02;;;;;;;;;;5012774;28;20456;-59
2021/12/08 16:04:17;;;;;;;3.60;1.10;;;;;;;;;;5012387;28;20462;-61
2021/12/08 16:06:48;;;;;;;0.85;0.60;;;;;;;;;;5012969;28;20022;-59
2021/12/08 16:09:16;;;;;;;2.60;1.08;;;;;;;;;;5012984;28;20081;-58
2021/12/08 16:11:43;;;;;;;1.73;0.90;;;;;;;;;;5013066;28;20101;-59
2021/12/08 16:14:16;;;;;;;1.58;0.88;;;;;;;;;;5012801;28;20455;-59
2021/12/08 16:16:42;;;;;;;1.35;0.90;;;;;;;;;;5012096;28;20026;-59
2021/12/08 16:19:12;;;;;;;2.47;0.80;;;;;;;;;;5012586;28;20041;-59
2021/12/08 16:21:38;;;;;;;1.27;0.90;;;;;;;;;;5009911;28;20026;-58
2021/12/08 16:24:04;;;;;;;1.67;1.10;;;;;;;;;;5012247;28;20479;-59
2021/12/08 16:26:30;;;;;;;1.23;0.95;;;;;;;;;;5011710;28;20038;-59
2021/12/08 16:28:57;;;;;;;2.35;1.20;;;;;;;;;;5012148;28;20036;-59
2021/12/08 16:31:23;;;;;;;1.15;0.85;;;;;;;;;;5011413;28;20428;-59
2021/12/08 16:33:50;;;;;;;0.80;0.80;;;;;;;;;;5012656;28;20455;-59
2021/12/08 16:36:17;;;;;;;2.72;1.02;;;;;;;;;;5012606;28;20017;-59
2021/12/08 16:38:43;;;;;;;1.83;1.00;;;;;;;;;;5012459;28;20113;-60
2021/12/08 16:43:57;;;;;;;1.75;1.10;;;;;;;;;;5010600;28;20125;-59
2021/12/08 16:46:23;;;;;;;5.38;1.33;;;;;;;;;;5011096;28;20079;-58
2021/12/08 16:48:49;;;;;;;2.75;0.98;;;;;;;;;;5011914;28;20117;-55
2021/12/08 16:51:15;;;;;;;1.65;1.15;;;;;;;;;;5012235;28;20022;-60
2021/12/08 16:53:41;;;;;;;4.25;1.40;;;;;;;;;;5011353;28;20391;-56
2021/12/08 16:56:07;;;;;;;1.75;1.23;;;;;;;;;;5011964;28;20053;-51
2021/12/08 16:58:33;;;;;;;1.38;0.90;;;;;;;;;;5010868;28;20648;-53
2021/12/08 17:01:01;;;;;;;2.60;1.23;;;;;;;;;;5011530;28;20054;-57
2021/12/08 17:03:32;;;;;;;3.92;1.20;;;;;;;;;;5011543;28;20038;-54
2021/12/08 17:05:59;;;;;;;5.57;1.10;;;;;;;;;;5012085;28;20022;-56
2021/12/08 17:08:27;;;;;;;3.28;1.55;;;;;;;;;;5011472;28;20029;-58
2021/12/08 17:10:54;;;;;;;3.00;1.08;;;;;;;;;;5011802;28;20497;-62
2021/12/08 17:13:21;;;;;;;1.60;1.00;;;;;;;;;;5011694;28;20119;-63
2021/12/08 17:15:47;;;;;;;1.60;1.17;;;;;;;;;;5008943;28;20026;-71
2021/12/08 17:18:13;;;;;;;2.08;1.50;;;;;;;;;;5011156;28;20037;-67
2021/12/08 17:20:40;;;;;;;4.60;0.93;;;;;;;;;;5011523;28;20073;-64
2021/12/08 17:23:10;;;;;;;4.40;1.20;;;;;;;;;;5012255;28;20036;-60
2021/12/08 17:25:36;;;;;;;1.13;0.88;;;;;;;;;;5011231;28;20487;-64
2021/12/08 17:28:02;;;;;;;2.42;1.10;;;;;;;;;;5012272;28;20029;-61
2021/12/08 17:30:28;;;;;;;1.98;0.98;;;;;;;;;;5011137;28;20026;-69
2021/12/08 17:32:54;;;;;;;3.78;1.25;;;;;;;;;;5012051;28;20022;-70
2021/12/08 17:35:21;;;;;;;2.58;1.45;;;;;;;;;;5011662;28;20018;-62
2021/12/08 17:37:48;;;;;;;2.70;1.20;;;;;;;;;;5015618;28;20017;-69
2021/12/08 17:40:14;;;;;;;3.67;1.30;;;;;;;;;;5012018;28;20041;-63
2021/12/08 17:42:49;;;;;;;3.47;1.20;;;;;;;;;;5011287;28;20018;-66
2021/12/08 17:45:17;;;;;;;3.28;1.35;;;;;;;;;;5011945;28;20052;-68
2021/12/08 17:47:44;;;;;;;4.60;1.48;;;;;;;;;;5008595;28;20390;-64
2021/12/08 17:50:10;;;;;;;4.10;1.20;;;;;;;;;;5011605;28;20026;-54
2021/12/08 17:52:36;;;;;;;4.72;1.40;;;;;;;;;;5012041;28;20036;-59
2021/12/08 17:55:02;;;;;;;3.67;1.27;;;;;;;;;;5015367;28;20057;-61
2021/12/08 17:57:28;;;;;;;3.13;1.17;;;;;;;;;;5014793;28;20057;-61
2021/12/08 17:59:54;;;;;;;3.72;1.20;;;;;;;;;;5014461;28;20376;-60
2021/12/08 18:02:21;;;;;;;2.40;1.08;;;;;;;;;;5014604;28;20022;-62
2021/12/08 18:04:47;;;;;;;2.80;1.33;;;;;;;;;;5015047;28;20482;-60
2021/12/08 18:07:14;;;;;;;2.13;1.33;;;;;;;;;;5015376;28;20060;-59
2021/12/08 18:09:40;;;;;;;2.05;1.23;;;;;;;;;;5014667;28;20552;-60
2021/12/08 18:12:06;;;;;;;1.60;1.00;;;;;;;;;;5014975;28;20101;-61